sensor_id;sensor_type;location;lat;lon;timestamp;temperature;humidity
68813;DHT22;55808;48.112;11.552;2023-02-28T00:00:06;-2.50;90.90
68813;DHT22;55808;48.112;11.552;2023-02-28T00:02:39;-2.50;91.00
68813;DHT22;55808;48.112;11.552;2023-02-28T00:05:05;-2.50;91.00
68813;DHT22;55808;48.112;11.552;2023-02-28T00:07:31;-2.60;91.00
68813;DHT22;55808;48.112;11.552;2023-02-28T00:09:57;-2.50;91.40
68813;DHT22;55808;48.112;11.552;2023-02-28T00:12:23;-2.50;91.30
68813;DHT22;55808;48.112;11.552;2023-02-28T00:14:49;-2.50;91.20
68813;DHT22;55808;48.112;11.552;2023-02-28T00:17:14;-2.60;91.10
68813;DHT22;55808;48.112;11.552;2023-02-28T00:19:41;-2.60;91.30
68813;DHT22;55808;48.112;11.552;2023-02-28T00:22:06;-2.60;91.30
68813;DHT22;55808;48.112;11.552;2023-02-28T00:24:32;-2.60;91.90
68813;DHT22;55808;48.112;11.552;2023-02-28T00:26:57;-2.70;91.30
68813;DHT22;55808;48.112;11.552;2023-02-28T00:29:23;-2.70;91.60
68813;DHT22;55808;48.112;11.552;2023-02-28T00:31:49;-2.60;91.70
68813;DHT22;55808;48.112;11.552;2023-02-28T00:34:14;-2.70;91.60
68813;DHT22;55808;48.112;11.552;2023-02-28T00:36:40;-2.70;91.40
68813;DHT22;55808;48.112;11.552;2023-02-28T00:39:10;-2.70;91.70
68813;DHT22;55808;48.112;11.552;2023-02-28T00:41:36;-2.70;91.90
68813;DHT22;55808;48.112;11.552;2023-02-28T00:44:01;-2.70;91.90
68813;DHT22;55808;48.112;11.552;2023-02-28T00:46:27;-2.80;91.80
68813;DHT22;55808;48.112;11.552;2023-02-28T00:48:52;-2.80;91.60
68813;DHT22;55808;48.112;11.552;2023-02-28T00:51:18;-2.80;91.60
68813;DHT22;55808;48.112;11.552;2023-02-28T00:53:43;-2.80;91.80
68813;DHT22;55808;48.112;11.552;2023-02-28T00:56:09;-2.70;92.10
68813;DHT22;55808;48.112;11.552;2023-02-28T00:58:34;-2.80;91.80
68813;DHT22;55808;48.112;11.552;2023-02-28T01:01:00;-2.80;92.40
68813;DHT22;55808;48.112;11.552;2023-02-28T01:03:25;-2.30;92.40
68813;DHT22;55808;48.112;11.552;2023-02-28T01:05:51;-2.90;92.00
68813;DHT22;55808;48.112;11.552;2023-02-28T01:08:18;-2.80;92.10
68813;DHT22;55808;48.112;11.552;2023-02-28T01:10:44;-2.80;92.50
68813;DHT22;55808;48.112;11.552;2023-02-28T01:13:09;-2.80;92.10
68813;DHT22;55808;48.112;11.552;2023-02-28T01:15:35;-2.80;92.50
68813;DHT22;55808;48.112;11.552;2023-02-28T01:18:01;-2.80;92.10
68813;DHT22;55808;48.112;11.552;2023-02-28T01:20:26;-2.90;91.90
68813;DHT22;55808;48.112;11.552;2023-02-28T01:22:52;-2.80;92.00
68813;DHT22;55808;48.112;11.552;2023-02-28T01:25:17;-2.90;92.30
68813;DHT22;55808;48.112;11.552;2023-02-28T01:27:43;-2.90;92.30
68813;DHT22;55808;48.112;11.552;2023-02-28T01:30:09;-2.90;92.30
68813;DHT22;55808;48.112;11.552;2023-02-28T01:32:36;-2.90;92.60
68813;DHT22;55808;48.112;11.552;2023-02-28T01:35:01;-2.90;92.50
68813;DHT22;55808;48.112;11.552;2023-02-28T01:37:27;-2.90;92.40
68813;DHT22;55808;48.112;11.552;2023-02-28T01:39:53;-2.90;92.70
68813;DHT22;55808;48.112;11.552;2023-02-28T01:42:19;-2.40;92.60
68813;DHT22;55808;48.112;11.552;2023-02-28T01:44:58;-2.90;92.40
68813;DHT22;55808;48.112;11.552;2023-02-28T01:47:25;-3.00;92.20
68813;DHT22;55808;48.112;11.552;2023-02-28T01:49:52;-3.00;92.10
68813;DHT22;55808;48.112;11.552;2023-02-28T01:52:17;-3.10;92.30
68813;DHT22;55808;48.112;11.552;2023-02-28T01:54:47;-3.00;92.60
68813;DHT22;55808;48.112;11.552;2023-02-28T01:57:15;-3.00;92.80
68813;DHT22;55808;48.112;11.552;2023-02-28T01:59:54;-3.00;92.70
68813;DHT22;55808;48.112;11.552;2023-02-28T02:02:21;-3.00;92.50
68813;DHT22;55808;48.112;11.552;2023-02-28T02:04:53;-3.10;92.60
68813;DHT22;55808;48.112;11.552;2023-02-28T02:07:19;-3.10;92.90
68813;DHT22;55808;48.112;11.552;2023-02-28T02:09:45;-3.10;92.70
68813;DHT22;55808;48.112;11.552;2023-02-28T02:17:20;-3.10;93.00
68813;DHT22;55808;48.112;11.552;2023-02-28T02:25:23;-3.10;93.00
68813;DHT22;55808;48.112;11.552;2023-02-28T02:35:39;-3.20;93.20
68813;DHT22;55808;48.112;11.552;2023-02-28T02:38:16;-3.10;93.60
68813;DHT22;55808;48.112;11.552;2023-02-28T02:40:58;-4.10;93.30
68813;DHT22;55808;48.112;11.552;2023-02-28T02:43:29;-3.20;93.30
68813;DHT22;55808;48.112;11.552;2023-02-28T02:46:20;-3.20;93.40
68813;DHT22;55808;48.112;11.552;2023-02-28T02:48:44;-3.20;93.80
68813;DHT22;55808;48.112;11.552;2023-02-28T02:51:16;-3.20;93.30
68813;DHT22;55808;48.112;11.552;2023-02-28T02:53:45;-3.20;93.70
68813;DHT22;55808;48.112;11.552;2023-02-28T02:56:17;-3.20;93.80
68813;DHT22;55808;48.112;11.552;2023-02-28T02:58:43;-3.20;93.50
68813;DHT22;55808;48.112;11.552;2023-02-28T03:01:11;-3.20;93.70
68813;DHT22;55808;48.112;11.552;2023-02-28T03:03:38;-3.20;93.80
68813;DHT22;55808;48.112;11.552;2023-02-28T03:06:03;-3.30;93.60
68813;DHT22;55808;48.112;11.552;2023-02-28T03:08:35;-3.20;94.60
68813;DHT22;55808;48.112;11.552;2023-02-28T03:11:02;-3.20;94.50
68813;DHT22;55808;48.112;11.552;2023-02-28T03:16:32;-3.40;93.70
68813;DHT22;55808;48.112;11.552;2023-02-28T03:26:43;-3.30;94.60
68813;DHT22;55808;48.112;11.552;2023-02-28T03:31:48;-3.40;94.30
68813;DHT22;55808;48.112;11.552;2023-02-28T03:34:49;-3.40;94.30
68813;DHT22;55808;48.112;11.552;2023-02-28T03:37:11;-3.40;94.60
68813;DHT22;55808;48.112;11.552;2023-02-28T03:39:42;-3.40;94.80
68813;DHT22;55808;48.112;11.552;2023-02-28T03:42:20;-3.40;94.60
68813;DHT22;55808;48.112;11.552;2023-02-28T03:44:51;-3.40;94.80
68813;DHT22;55808;48.112;11.552;2023-02-28T03:47:24;-4.70;94.30
68813;DHT22;55808;48.112;11.552;2023-02-28T03:49:54;-3.40;94.70
68813;DHT22;55808;48.112;11.552;2023-02-28T03:52:23;-3.40;94.80
68813;DHT22;55808;48.112;11.552;2023-02-28T03:54:51;-3.40;95.30
68813;DHT22;55808;48.112;11.552;2023-02-28T03:57:28;-3.40;95.10
68813;DHT22;55808;48.112;11.552;2023-02-28T04:00:06;-3.40;95.10
68813;DHT22;55808;48.112;11.552;2023-02-28T04:02:32;-3.40;95.40
68813;DHT22;55808;48.112;11.552;2023-02-28T04:04:59;-3.40;95.40
68813;DHT22;55808;48.112;11.552;2023-02-28T04:07:28;-3.40;95.40
68813;DHT22;55808;48.112;11.552;2023-02-28T04:09:53;-3.40;95.40
68813;DHT22;55808;48.112;11.552;2023-02-28T04:12:19;-3.40;95.40
68813;DHT22;55808;48.112;11.552;2023-02-28T04:14:46;-3.40;95.70
68813;DHT22;55808;48.112;11.552;2023-02-28T04:17:11;-3.40;95.80
68813;DHT22;55808;48.112;11.552;2023-02-28T04:19:37;-3.50;95.60
68813;DHT22;55808;48.112;11.552;2023-02-28T04:22:02;-3.40;95.70
68813;DHT22;55808;48.112;11.552;2023-02-28T04:24:28;-3.40;95.90
68813;DHT22;55808;48.112;11.552;2023-02-28T04:26:54;-3.40;96.30
68813;DHT22;55808;48.112;11.552;2023-02-28T04:29:24;-3.40;96.10
68813;DHT22;55808;48.112;11.552;2023-02-28T04:31:50;-3.40;96.00
68813;DHT22;55808;48.112;11.552;2023-02-28T04:34:15;-3.40;95.90
68813;DHT22;55808;48.112;11.552;2023-02-28T04:36:41;-3.40;96.20
68813;DHT22;55808;48.112;11.552;2023-02-28T04:39:07;-3.40;96.40
68813;DHT22;55808;48.112;11.552;2023-02-28T04:41:34;-3.30;96.60
68813;DHT22;55808;48.112;11.552;2023-02-28T04:44:00;-3.30;96.50
68813;DHT22;55808;48.112;11.552;2023-02-28T04:46:25;-3.30;96.00
68813;DHT22;55808;48.112;11.552;2023-02-28T04:48:51;-3.30;96.20
68813;DHT22;55808;48.112;11.552;2023-02-28T04:51:18;-3.30;96.50
68813;DHT22;55808;48.112;11.552;2023-02-28T04:53:44;-3.30;96.30
68813;DHT22;55808;48.112;11.552;2023-02-28T04:56:13;-3.30;96.50
68813;DHT22;55808;48.112;11.552;2023-02-28T04:58:38;-3.30;96.60
68813;DHT22;55808;48.112;11.552;2023-02-28T05:01:06;-3.20;96.60
68813;DHT22;55808;48.112;11.552;2023-02-28T05:03:40;-3.10;96.80
68813;DHT22;55808;48.112;11.552;2023-02-28T05:06:06;-3.10;96.40
68813;DHT22;55808;48.112;11.552;2023-02-28T05:08:32;-3.10;96.60
68813;DHT22;55808;48.112;11.552;2023-02-28T05:10:58;-3.10;96.60
68813;DHT22;55808;48.112;11.552;2023-02-28T05:13:24;-3.10;96.50
68813;DHT22;55808;48.112;11.552;2023-02-28T05:15:49;-3.10;96.20
68813;DHT22;55808;48.112;11.552;2023-02-28T05:18:15;-3.00;96.60
68813;DHT22;55808;48.112;11.552;2023-02-28T05:20:40;-2.90;96.40
68813;DHT22;55808;48.112;11.552;2023-02-28T05:23:06;-3.00;96.30
68813;DHT22;55808;48.112;11.552;2023-02-28T05:25:31;-2.90;96.30
68813;DHT22;55808;48.112;11.552;2023-02-28T05:27:57;-2.90;96.20
68813;DHT22;55808;48.112;11.552;2023-02-28T05:30:22;-2.90;96.30
68813;DHT22;55808;48.112;11.552;2023-02-28T05:32:49;-2.90;96.20
68813;DHT22;55808;48.112;11.552;2023-02-28T05:35:15;-2.80;96.40
68813;DHT22;55808;48.112;11.552;2023-02-28T05:37:41;-2.80;96.10
68813;DHT22;55808;48.112;11.552;2023-02-28T05:40:07;-2.80;96.20
68813;DHT22;55808;48.112;11.552;2023-02-28T05:42:35;-2.70;96.30
68813;DHT22;55808;48.112;11.552;2023-02-28T05:45:01;-2.00;96.20
68813;DHT22;55808;48.112;11.552;2023-02-28T05:47:27;-2.70;96.40
68813;DHT22;55808;48.112;11.552;2023-02-28T05:49:52;-2.60;96.50
68813;DHT22;55808;48.112;11.552;2023-02-28T05:52:18;-2.70;96.20
68813;DHT22;55808;48.112;11.552;2023-02-28T05:54:43;-2.70;96.00
68813;DHT22;55808;48.112;11.552;2023-02-28T05:57:09;-2.60;95.80
68813;DHT22;55808;48.112;11.552;2023-02-28T05:59:34;-2.60;96.30
68813;DHT22;55808;48.112;11.552;2023-02-28T06:02:00;-2.60;95.90
68813;DHT22;55808;48.112;11.552;2023-02-28T06:04:25;-2.50;95.90
68813;DHT22;55808;48.112;11.552;2023-02-28T06:06:51;-2.60;95.50
68813;DHT22;55808;48.112;11.552;2023-02-28T06:09:17;-2.50;96.00
68813;DHT22;55808;48.112;11.552;2023-02-28T06:11:43;-2.50;95.60
68813;DHT22;55808;48.112;11.552;2023-02-28T06:14:18;-2.50;95.20
68813;DHT22;55808;48.112;11.552;2023-02-28T06:16:44;-2.50;95.00
68813;DHT22;55808;48.112;11.552;2023-02-28T06:19:10;-2.50;95.20
68813;DHT22;55808;48.112;11.552;2023-02-28T06:21:36;-2.50;95.60
68813;DHT22;55808;48.112;11.552;2023-02-28T06:24:01;-2.40;95.80
68813;DHT22;55808;48.112;11.552;2023-02-28T06:26:27;-2.40;95.10
68813;DHT22;55808;48.112;11.552;2023-02-28T06:28:53;-2.50;94.70
68813;DHT22;55808;48.112;11.552;2023-02-28T06:31:18;-2.50;94.70
68813;DHT22;55808;48.112;11.552;2023-02-28T06:33:44;-2.50;94.90
68813;DHT22;55808;48.112;11.552;2023-02-28T06:36:11;-2.50;94.90
68813;DHT22;55808;48.112;11.552;2023-02-28T06:38:37;-2.50;94.60
68813;DHT22;55808;48.112;11.552;2023-02-28T06:41:03;-2.40;94.40
68813;DHT22;55808;48.112;11.552;2023-02-28T06:43:29;-2.50;94.50
68813;DHT22;55808;48.112;11.552;2023-02-28T06:45:56;-2.40;94.70
68813;DHT22;55808;48.112;11.552;2023-02-28T06:48:22;-2.40;94.40
68813;DHT22;55808;48.112;11.552;2023-02-28T06:50:47;-2.30;94.60
68813;DHT22;55808;48.112;11.552;2023-02-28T06:53:13;-2.40;94.20
68813;DHT22;55808;48.112;11.552;2023-02-28T06:55:38;-2.30;94.60
68813;DHT22;55808;48.112;11.552;2023-02-28T06:58:04;-2.40;94.10
68813;DHT22;55808;48.112;11.552;2023-02-28T07:00:43;0.20;95.00
68813;DHT22;55808;48.112;11.552;2023-02-28T07:03:09;-2.40;94.00
68813;DHT22;55808;48.112;11.552;2023-02-28T07:05:35;-2.40;94.10
68813;DHT22;55808;48.112;11.552;2023-02-28T07:08:01;-2.30;94.30
68813;DHT22;55808;48.112;11.552;2023-02-28T07:10:27;-2.30;94.50
68813;DHT22;55808;48.112;11.552;2023-02-28T07:12:53;-2.30;93.90
68813;DHT22;55808;48.112;11.552;2023-02-28T07:15:19;-2.20;93.90
68813;DHT22;55808;48.112;11.552;2023-02-28T07:17:44;-2.20;94.10
68813;DHT22;55808;48.112;11.552;2023-02-28T07:20:10;-2.20;94.00
68813;DHT22;55808;48.112;11.552;2023-02-28T07:22:35;-2.20;93.80
68813;DHT22;55808;48.112;11.552;2023-02-28T07:25:01;-2.20;93.80
68813;DHT22;55808;48.112;11.552;2023-02-28T07:27:26;-2.20;93.70
68813;DHT22;55808;48.112;11.552;2023-02-28T07:29:52;-2.20;93.70
68813;DHT22;55808;48.112;11.552;2023-02-28T07:32:18;-2.20;94.00
68813;DHT22;55808;48.112;11.552;2023-02-28T07:34:44;-2.30;93.60
68813;DHT22;55808;48.112;11.552;2023-02-28T07:37:09;-2.20;93.70
68813;DHT22;55808;48.112;11.552;2023-02-28T07:39:35;-2.20;93.80
68813;DHT22;55808;48.112;11.552;2023-02-28T07:42:03;-2.10;94.10
68813;DHT22;55808;48.112;11.552;2023-02-28T07:44:29;-2.10;93.80
68813;DHT22;55808;48.112;11.552;2023-02-28T07:46:54;-2.00;93.80
68813;DHT22;55808;48.112;11.552;2023-02-28T07:49:20;-2.00;93.80
68813;DHT22;55808;48.112;11.552;2023-02-28T07:51:45;-2.00;93.60
68813;DHT22;55808;48.112;11.552;2023-02-28T07:54:11;-2.00;93.70
68813;DHT22;55808;48.112;11.552;2023-02-28T07:56:36;-1.90;94.10
68813;DHT22;55808;48.112;11.552;2023-02-28T07:59:02;-1.80;94.30
68813;DHT22;55808;48.112;11.552;2023-02-28T08:01:28;-1.70;93.80
68813;DHT22;55808;48.112;11.552;2023-02-28T08:03:53;-1.60;93.50
68813;DHT22;55808;48.112;11.552;2023-02-28T08:06:21;-1.60;92.80
68813;DHT22;55808;48.112;11.552;2023-02-28T08:08:46;-1.70;92.60
68813;DHT22;55808;48.112;11.552;2023-02-28T08:11:12;-1.80;92.90
68813;DHT22;55808;48.112;11.552;2023-02-28T08:13:38;-1.80;92.80
68813;DHT22;55808;48.112;11.552;2023-02-28T08:16:04;-1.80;92.90
68813;DHT22;55808;48.112;11.552;2023-02-28T08:18:29;-1.80;92.90
68813;DHT22;55808;48.112;11.552;2023-02-28T08:20:55;-1.80;93.30
68813;DHT22;55808;48.112;11.552;2023-02-28T08:23:21;-1.70;93.00
68813;DHT22;55808;48.112;11.552;2023-02-28T08:25:54;-1.70;92.90
68813;DHT22;55808;48.112;11.552;2023-02-28T08:28:20;-1.60;93.20
68813;DHT22;55808;48.112;11.552;2023-02-28T08:30:45;-1.60;92.80
68813;DHT22;55808;48.112;11.552;2023-02-28T08:33:11;-1.60;93.10
68813;DHT22;55808;48.112;11.552;2023-02-28T08:35:36;-1.60;92.80
68813;DHT22;55808;48.112;11.552;2023-02-28T08:38:02;-1.50;92.80
68813;DHT22;55808;48.112;11.552;2023-02-28T08:40:28;-1.50;92.70
68813;DHT22;55808;48.112;11.552;2023-02-28T08:42:55;-1.50;92.80
68813;DHT22;55808;48.112;11.552;2023-02-28T08:45:21;-1.50;92.80
68813;DHT22;55808;48.112;11.552;2023-02-28T08:47:46;-1.50;92.60
68813;DHT22;55808;48.112;11.552;2023-02-28T08:50:12;-1.40;92.60
68813;DHT22;55808;48.112;11.552;2023-02-28T08:52:42;1.10;93.50
68813;DHT22;55808;48.112;11.552;2023-02-28T08:55:07;-1.50;92.70
68813;DHT22;55808;48.112;11.552;2023-02-28T08:57:34;-1.40;92.40
68813;DHT22;55808;48.112;11.552;2023-02-28T09:00:00;-1.20;92.80
68813;DHT22;55808;48.112;11.552;2023-02-28T09:02:29;-1.30;92.20
68813;DHT22;55808;48.112;11.552;2023-02-28T09:04:55;-1.20;92.40
68813;DHT22;55808;48.112;11.552;2023-02-28T09:07:21;-1.20;92.50
68813;DHT22;55808;48.112;11.552;2023-02-28T09:09:46;-1.10;92.10
68813;DHT22;55808;48.112;11.552;2023-02-28T09:12:25;-1.30;92.10
68813;DHT22;55808;48.112;11.552;2023-02-28T09:14:51;-1.30;92.40
68813;DHT22;55808;48.112;11.552;2023-02-28T09:17:17;-1.10;92.40
68813;DHT22;55808;48.112;11.552;2023-02-28T09:19:43;-1.00;92.10
68813;DHT22;55808;48.112;11.552;2023-02-28T09:22:09;-0.90;92.50
68813;DHT22;55808;48.112;11.552;2023-02-28T09:24:35;-0.90;92.20
68813;DHT22;55808;48.112;11.552;2023-02-28T09:27:01;-0.90;92.10
68813;DHT22;55808;48.112;11.552;2023-02-28T09:29:27;-1.00;91.30
68813;DHT22;55808;48.112;11.552;2023-02-28T09:31:59;-1.10;91.80
68813;DHT22;55808;48.112;11.552;2023-02-28T09:34:27;-1.10;91.60
68813;DHT22;55808;48.112;11.552;2023-02-28T09:36:56;-1.00;91.60
68813;DHT22;55808;48.112;11.552;2023-02-28T09:39:22;-0.90;91.50
68813;DHT22;55808;48.112;11.552;2023-02-28T09:41:48;-0.80;91.60
68813;DHT22;55808;48.112;11.552;2023-02-28T09:46:55;-0.70;91.30
68813;DHT22;55808;48.112;11.552;2023-02-28T09:49:23;-0.70;91.10
68813;DHT22;55808;48.112;11.552;2023-02-28T09:51:57;-0.60;91.20
68813;DHT22;55808;48.112;11.552;2023-02-28T09:54:24;-0.60;91.20
68813;DHT22;55808;48.112;11.552;2023-02-28T09:59:45;-0.60;91.10
68813;DHT22;55808;48.112;11.552;2023-02-28T10:02:16;-0.50;90.90
68813;DHT22;55808;48.112;11.552;2023-02-28T10:04:56;-0.40;91.00
68813;DHT22;55808;48.112;11.552;2023-02-28T10:07:33;-0.40;91.40
68813;DHT22;55808;48.112;11.552;2023-02-28T10:10:02;-0.30;90.80
68813;DHT22;55808;48.112;11.552;2023-02-28T10:12:30;-0.40;90.90
68813;DHT22;55808;48.112;11.552;2023-02-28T10:14:57;-0.70;90.70
68813;DHT22;55808;48.112;11.552;2023-02-28T10:17:25;-0.60;91.20
68813;DHT22;55808;48.112;11.552;2023-02-28T10:20:02;-0.50;91.00
68813;DHT22;55808;48.112;11.552;2023-02-28T10:22:53;-0.60;90.60
68813;DHT22;55808;48.112;11.552;2023-02-28T10:25:28;-0.60;91.10
68813;DHT22;55808;48.112;11.552;2023-02-28T10:27:54;-0.40;91.00
68813;DHT22;55808;48.112;11.552;2023-02-28T10:30:25;-0.30;90.30
68813;DHT22;55808;48.112;11.552;2023-02-28T10:32:51;-0.20;90.40
68813;DHT22;55808;48.112;11.552;2023-02-28T10:35:25;-0.30;90.20
68813;DHT22;55808;48.112;11.552;2023-02-28T10:37:55;-0.40;90.10
68813;DHT22;55808;48.112;11.552;2023-02-28T10:50:54;0.10;88.10
68813;DHT22;55808;48.112;11.552;2023-02-28T11:01:34;0.90;88.10
68813;DHT22;55808;48.112;11.552;2023-02-28T11:04:00;1.30;87.20
68813;DHT22;55808;48.112;11.552;2023-02-28T11:06:27;1.20;85.10
68813;DHT22;55808;48.112;11.552;2023-02-28T11:08:55;1.20;85.90
68813;DHT22;55808;48.112;11.552;2023-02-28T11:11:21;2.40;85.80
68813;DHT22;55808;48.112;11.552;2023-02-28T11:13:50;1.10;85.50
68813;DHT22;55808;48.112;11.552;2023-02-28T11:16:16;1.10;84.80
68813;DHT22;55808;48.112;11.552;2023-02-28T11:21:07;2.10;87.50
68813;DHT22;55808;48.112;11.552;2023-02-28T11:23:35;1.00;84.70
68813;DHT22;55808;48.112;11.552;2023-02-28T11:26:02;0.90;85.80
68813;DHT22;55808;48.112;11.552;2023-02-28T11:28:34;2.60;87.20
68813;DHT22;55808;48.112;11.552;2023-02-28T11:31:03;1.00;85.30
68813;DHT22;55808;48.112;11.552;2023-02-28T11:33:30;1.00;86.00
68813;DHT22;55808;48.112;11.552;2023-02-28T11:36:16;1.00;85.50
68813;DHT22;55808;48.112;11.552;2023-02-28T11:38:42;1.10;86.10
68813;DHT22;55808;48.112;11.552;2023-02-28T11:46:11;2.50;83.10
68813;DHT22;55808;48.112;11.552;2023-02-28T11:51:17;4.70;76.40
68813;DHT22;55808;48.112;11.552;2023-02-28T11:56:25;6.40;68.10
68813;DHT22;55808;48.112;11.552;2023-02-28T12:11:56;3.80;74.30
68813;DHT22;55808;48.112;11.552;2023-02-28T12:20:13;4.50;70.70
68813;DHT22;55808;48.112;11.552;2023-02-28T12:22:32;5.80;71.60
68813;DHT22;55808;48.112;11.552;2023-02-28T12:27:29;5.10;69.10
68813;DHT22;55808;48.112;11.552;2023-02-28T12:30:13;6.50;67.70
68813;DHT22;55808;48.112;11.552;2023-02-28T12:32:42;7.00;66.90
68813;DHT22;55808;48.112;11.552;2023-02-28T12:37:39;7.50;65.30
68813;DHT22;55808;48.112;11.552;2023-02-28T12:40:19;7.40;63.10
68813;DHT22;55808;48.112;11.552;2023-02-28T12:43:07;8.50;63.50
68813;DHT22;55808;48.112;11.552;2023-02-28T12:45:41;9.00;60.70
68813;DHT22;55808;48.112;11.552;2023-02-28T12:48:10;10.10;60.90
68813;DHT22;55808;48.112;11.552;2023-02-28T12:50:39;10.20;55.60
68813;DHT22;55808;48.112;11.552;2023-02-28T13:03:39;9.10;57.80
68813;DHT22;55808;48.112;11.552;2023-02-28T13:11:23;9.80;56.20
68813;DHT22;55808;48.112;11.552;2023-02-28T13:13:49;10.00;56.80
68813;DHT22;55808;48.112;11.552;2023-02-28T13:16:22;9.60;57.40
68813;DHT22;55808;48.112;11.552;2023-02-28T13:18:47;10.00;56.20
68813;DHT22;55808;48.112;11.552;2023-02-28T13:21:23;10.50;56.70
68813;DHT22;55808;48.112;11.552;2023-02-28T13:34:30;6.30;61.10
68813;DHT22;55808;48.112;11.552;2023-02-28T13:42:50;4.70;65.50
68813;DHT22;55808;48.112;11.552;2023-02-28T13:50:19;6.80;61.80
68813;DHT22;55808;48.112;11.552;2023-02-28T13:55:24;6.00;63.40
68813;DHT22;55808;48.112;11.552;2023-02-28T14:03:23;8.00;59.60
68813;DHT22;55808;48.112;11.552;2023-02-28T14:05:47;8.00;59.00
68813;DHT22;55808;48.112;11.552;2023-02-28T14:08:15;6.40;63.40
68813;DHT22;55808;48.112;11.552;2023-02-28T14:10:46;5.60;62.60
68813;DHT22;55808;48.112;11.552;2023-02-28T14:15:56;5.50;64.00
68813;DHT22;55808;48.112;11.552;2023-02-28T14:18:33;5.40;64.90
68813;DHT22;55808;48.112;11.552;2023-02-28T14:23:46;5.70;65.00
68813;DHT22;55808;48.112;11.552;2023-02-28T14:31:29;4.70;68.90
68813;DHT22;55808;48.112;11.552;2023-02-28T14:36:44;5.80;66.70
68813;DHT22;55808;48.112;11.552;2023-02-28T14:39:14;6.10;64.50
68813;DHT22;55808;48.112;11.552;2023-02-28T14:41:41;6.20;64.70
68813;DHT22;55808;48.112;11.552;2023-02-28T14:46:41;6.10;64.60
68813;DHT22;55808;48.112;11.552;2023-02-28T14:49:18;6.20;64.00
68813;DHT22;55808;48.112;11.552;2023-02-28T14:51:44;6.30;64.80
68813;DHT22;55808;48.112;11.552;2023-02-28T14:54:12;6.20;62.70
68813;DHT22;55808;48.112;11.552;2023-02-28T14:56:38;5.80;62.70
68813;DHT22;55808;48.112;11.552;2023-02-28T14:59:05;5.80;65.50
68813;DHT22;55808;48.112;11.552;2023-02-28T15:01:31;5.70;63.50
68813;DHT22;55808;48.112;11.552;2023-02-28T15:04:00;5.80;63.50
68813;DHT22;55808;48.112;11.552;2023-02-28T15:06:26;5.90;65.70
68813;DHT22;55808;48.112;11.552;2023-02-28T15:11:37;5.50;64.30
68813;DHT22;55808;48.112;11.552;2023-02-28T15:14:04;5.40;65.30
68813;DHT22;55808;48.112;11.552;2023-02-28T15:16:34;5.50;65.00
68813;DHT22;55808;48.112;11.552;2023-02-28T15:19:02;5.50;65.80
68813;DHT22;55808;48.112;11.552;2023-02-28T15:21:33;5.30;65.80
68813;DHT22;55808;48.112;11.552;2023-02-28T15:26:26;5.40;67.00
68813;DHT22;55808;48.112;11.552;2023-02-28T15:28:55;4.80;67.50
68813;DHT22;55808;48.112;11.552;2023-02-28T15:31:23;4.70;67.60
68813;DHT22;55808;48.112;11.552;2023-02-28T15:33:57;4.50;67.10
68813;DHT22;55808;48.112;11.552;2023-02-28T15:36:24;4.50;67.80
68813;DHT22;55808;48.112;11.552;2023-02-28T15:38:53;4.50;68.50
68813;DHT22;55808;48.112;11.552;2023-02-28T15:41:26;4.40;68.50
68813;DHT22;55808;48.112;11.552;2023-02-28T15:46:36;4.30;68.60
68813;DHT22;55808;48.112;11.552;2023-02-28T15:49:04;4.10;68.00
68813;DHT22;55808;48.112;11.552;2023-02-28T15:51:33;3.90;69.20
68813;DHT22;55808;48.112;11.552;2023-02-28T15:54:00;3.90;69.40
68813;DHT22;55808;48.112;11.552;2023-02-28T15:56:28;3.80;69.40
68813;DHT22;55808;48.112;11.552;2023-02-28T15:58:58;3.80;70.20
68813;DHT22;55808;48.112;11.552;2023-02-28T16:01:28;3.60;70.70
68813;DHT22;55808;48.112;11.552;2023-02-28T16:04:01;3.50;70.70
68813;DHT22;55808;48.112;11.552;2023-02-28T16:06:37;3.40;71.30
68813;DHT22;55808;48.112;11.552;2023-02-28T16:09:05;3.20;71.90
68813;DHT22;55808;48.112;11.552;2023-02-28T16:11:33;3.10;71.90
68813;DHT22;55808;48.112;11.552;2023-02-28T16:13:59;3.50;72.90
68813;DHT22;55808;48.112;11.552;2023-02-28T16:16:25;3.30;73.00
68813;DHT22;55808;48.112;11.552;2023-02-28T16:18:51;2.90;73.50
68813;DHT22;55808;48.112;11.552;2023-02-28T16:21:16;2.80;73.90
68813;DHT22;55808;48.112;11.552;2023-02-28T16:23:42;2.80;74.40
68813;DHT22;55808;48.112;11.552;2023-02-28T16:26:08;4.10;75.80
68813;DHT22;55808;48.112;11.552;2023-02-28T16:28:35;2.60;74.90
68813;DHT22;55808;48.112;11.552;2023-02-28T16:31:02;2.50;74.80
68813;DHT22;55808;48.112;11.552;2023-02-28T16:33:29;2.30;76.10
68813;DHT22;55808;48.112;11.552;2023-02-28T16:35:55;2.30;76.00
68813;DHT22;55808;48.112;11.552;2023-02-28T16:38:20;2.30;76.50
68813;DHT22;55808;48.112;11.552;2023-02-28T16:40:46;2.90;78.10
68813;DHT22;55808;48.112;11.552;2023-02-28T16:43:18;2.20;77.30
68813;DHT22;55808;48.112;11.552;2023-02-28T16:45:46;2.20;77.30
68813;DHT22;55808;48.112;11.552;2023-02-28T16:48:12;2.10;78.40
68813;DHT22;55808;48.112;11.552;2023-02-28T16:50:38;2.10;78.10
68813;DHT22;55808;48.112;11.552;2023-02-28T16:53:06;2.20;79.00
68813;DHT22;55808;48.112;11.552;2023-02-28T16:55:33;2.00;78.60
68813;DHT22;55808;48.112;11.552;2023-02-28T16:58:00;1.90;79.70
68813;DHT22;55808;48.112;11.552;2023-02-28T17:00:26;1.90;79.40
68813;DHT22;55808;48.112;11.552;2023-02-28T17:02:52;1.90;79.00
68813;DHT22;55808;48.112;11.552;2023-02-28T17:05:18;3.40;80.20
68813;DHT22;55808;48.112;11.552;2023-02-28T17:07:44;1.80;79.20
68813;DHT22;55808;48.112;11.552;2023-02-28T17:10:20;1.80;81.20
68813;DHT22;55808;48.112;11.552;2023-02-28T17:12:46;1.70;79.90
68813;DHT22;55808;48.112;11.552;2023-02-28T17:15:12;4.30;82.20
68813;DHT22;55808;48.112;11.552;2023-02-28T17:17:37;1.60;79.90
68813;DHT22;55808;48.112;11.552;2023-02-28T17:20:03;2.10;80.30
68813;DHT22;55808;48.112;11.552;2023-02-28T17:22:29;1.50;80.50
68813;DHT22;55808;48.112;11.552;2023-02-28T17:24:55;2.40;81.60
68813;DHT22;55808;48.112;11.552;2023-02-28T17:27:21;1.40;80.80
68813;DHT22;55808;48.112;11.552;2023-02-28T17:29:46;1.40;82.60
68813;DHT22;55808;48.112;11.552;2023-02-28T17:32:12;1.30;82.30
68813;DHT22;55808;48.112;11.552;2023-02-28T17:34:38;1.30;83.10
68813;DHT22;55808;48.112;11.552;2023-02-28T17:37:03;3.30;84.90
68813;DHT22;55808;48.112;11.552;2023-02-28T17:39:29;1.20;82.60
68813;DHT22;55808;48.112;11.552;2023-02-28T17:41:56;1.20;85.00
68813;DHT22;55808;48.112;11.552;2023-02-28T17:44:21;3.90;87.40
68813;DHT22;55808;48.112;11.552;2023-02-28T17:46:49;1.10;85.00
68813;DHT22;55808;48.112;11.552;2023-02-28T17:49:16;1.10;85.20
68813;DHT22;55808;48.112;11.552;2023-02-28T17:51:42;1.00;85.00
68813;DHT22;55808;48.112;11.552;2023-02-28T17:54:07;0.90;85.50
68813;DHT22;55808;48.112;11.552;2023-02-28T17:56:33;0.90;86.20
68813;DHT22;55808;48.112;11.552;2023-02-28T17:58:59;2.70;87.40
68813;DHT22;55808;48.112;11.552;2023-02-28T18:01:24;0.90;86.50
68813;DHT22;55808;48.112;11.552;2023-02-28T18:03:53;0.90;87.30